sensor_id;sensor_type;location;lat;lon;timestamp;temperature;humidity
2158;DHT22;41972;48.774;9.282;2023-09-08T00:02:06;14.80;99.90
2158;DHT22;41972;48.774;9.282;2023-09-08T00:04:32;14.80;99.90
2158;DHT22;41972;48.774;9.282;2023-09-08T00:07:00;14.80;99.90
2158;DHT22;41972;48.774;9.282;2023-09-08T00:09:26;14.70;99.90
2158;DHT22;41972;48.774;9.282;2023-09-08T00:11:52;14.70;99.90
2158;DHT22;41972;48.774;9.282;2023-09-08T00:14:19;14.80;99.90
2158;DHT22;41972;48.774;9.282;2023-09-08T00:16:45;14.80;99.90
2158;DHT22;41972;48.774;9.282;2023-09-08T00:19:11;14.60;99.90
2158;DHT22;41972;48.774;9.282;2023-09-08T00:21:37;14.40;99.90
2158;DHT22;41972;48.774;9.282;2023-09-08T00:24:05;14.50;99.90
2158;DHT22;41972;48.774;9.282;2023-09-08T00:26:32;14.60;99.90
2158;DHT22;41972;48.774;9.282;2023-09-08T00:28:57;14.50;99.90
2158;DHT22;41972;48.774;9.282;2023-09-08T00:31:23;14.60;99.90
2158;DHT22;41972;48.774;9.282;2023-09-08T00:33:49;14.40;99.90
2158;DHT22;41972;48.774;9.282;2023-09-08T00:36:14;14.50;99.90
2158;DHT22;41972;48.774;9.282;2023-09-08T00:38:40;14.40;99.90
2158;DHT22;41972;48.774;9.282;2023-09-08T00:41:07;14.40;99.90
2158;DHT22;41972;48.774;9.282;2023-09-08T00:43:33;14.30;99.90
2158;DHT22;41972;48.774;9.282;2023-09-08T00:45:58;14.40;99.90
2158;DHT22;41972;48.774;9.282;2023-09-08T00:48:25;14.50;99.90
2158;DHT22;41972;48.774;9.282;2023-09-08T00:50:51;14.50;99.90
2158;DHT22;41972;48.774;9.282;2023-09-08T00:53:17;14.50;99.90
2158;DHT22;41972;48.774;9.282;2023-09-08T00:55:43;14.40;99.90
2158;DHT22;41972;48.774;9.282;2023-09-08T00:58:11;14.40;99.90
2158;DHT22;41972;48.774;9.282;2023-09-08T01:00:37;14.30;99.90
2158;DHT22;41972;48.774;9.282;2023-09-08T01:03:03;14.30;99.90
2158;DHT22;41972;48.774;9.282;2023-09-08T01:05:29;14.30;99.90
2158;DHT22;41972;48.774;9.282;2023-09-08T01:07:56;14.20;99.90
2158;DHT22;41972;48.774;9.282;2023-09-08T01:10:22;14.00;99.90
2158;DHT22;41972;48.774;9.282;2023-09-08T01:12:48;14.00;99.90
2158;DHT22;41972;48.774;9.282;2023-09-08T01:15:14;14.00;99.90
2158;DHT22;41972;48.774;9.282;2023-09-08T01:17:39;13.90;99.90
2158;DHT22;41972;48.774;9.282;2023-09-08T01:28:24;13.90;99.90
2158;DHT22;41972;48.774;9.282;2023-09-08T01:30:50;13.70;99.90
2158;DHT22;41972;48.774;9.282;2023-09-08T01:33:17;13.60;99.90
2158;DHT22;41972;48.774;9.282;2023-09-08T01:35:43;13.70;99.90
2158;DHT22;41972;48.774;9.282;2023-09-08T01:38:08;13.80;99.90
2158;DHT22;41972;48.774;9.282;2023-09-08T01:40:34;13.60;99.90
2158;DHT22;41972;48.774;9.282;2023-09-08T01:43:00;13.40;99.90
2158;DHT22;41972;48.774;9.282;2023-09-08T01:45:27;13.40;99.90
2158;DHT22;41972;48.774;9.282;2023-09-08T01:47:53;13.40;99.90
2158;DHT22;41972;48.774;9.282;2023-09-08T01:50:18;13.40;99.90
2158;DHT22;41972;48.774;9.282;2023-09-08T01:52:47;13.40;99.90
2158;DHT22;41972;48.774;9.282;2023-09-08T01:55:13;13.30;99.90
2158;DHT22;41972;48.774;9.282;2023-09-08T01:57:40;13.30;99.90
2158;DHT22;41972;48.774;9.282;2023-09-08T02:00:06;13.30;99.90
2158;DHT22;41972;48.774;9.282;2023-09-08T02:02:32;13.30;99.90
2158;DHT22;41972;48.774;9.282;2023-09-08T02:04:57;13.30;99.90
2158;DHT22;41972;48.774;9.282;2023-09-08T02:07:23;13.40;99.90
2158;DHT22;41972;48.774;9.282;2023-09-08T02:09:48;13.40;99.90
2158;DHT22;41972;48.774;9.282;2023-09-08T02:12:14;13.30;99.90
2158;DHT22;41972;48.774;9.282;2023-09-08T02:14:39;13.30;99.90
2158;DHT22;41972;48.774;9.282;2023-09-08T02:17:05;13.10;99.90
2158;DHT22;41972;48.774;9.282;2023-09-08T02:19:31;13.10;99.90
2158;DHT22;41972;48.774;9.282;2023-09-08T02:21:57;13.00;99.90
2158;DHT22;41972;48.774;9.282;2023-09-08T02:24:23;13.00;99.90
2158;DHT22;41972;48.774;9.282;2023-09-08T02:26:48;12.90;99.90
2158;DHT22;41972;48.774;9.282;2023-09-08T02:29:14;12.90;99.90
2158;DHT22;41972;48.774;9.282;2023-09-08T02:31:40;12.90;99.90
2158;DHT22;41972;48.774;9.282;2023-09-08T02:34:05;13.60;99.90
2158;DHT22;41972;48.774;9.282;2023-09-08T02:36:31;12.90;99.90
2158;DHT22;41972;48.774;9.282;2023-09-08T02:38:56;13.00;99.90
2158;DHT22;41972;48.774;9.282;2023-09-08T02:41:22;12.90;99.90
2158;DHT22;41972;48.774;9.282;2023-09-08T02:43:49;13.00;99.90
2158;DHT22;41972;48.774;9.282;2023-09-08T02:46:15;13.00;99.90
2158;DHT22;41972;48.774;9.282;2023-09-08T02:48:40;13.00;99.90
2158;DHT22;41972;48.774;9.282;2023-09-08T02:51:06;13.00;99.90
2158;DHT22;41972;48.774;9.282;2023-09-08T02:53:32;13.00;99.90
2158;DHT22;41972;48.774;9.282;2023-09-08T02:55:58;13.00;99.90
2158;DHT22;41972;48.774;9.282;2023-09-08T02:58:25;12.90;99.90
2158;DHT22;41972;48.774;9.282;2023-09-08T03:00:51;12.90;99.90
2158;DHT22;41972;48.774;9.282;2023-09-08T03:03:19;13.00;99.90
2158;DHT22;41972;48.774;9.282;2023-09-08T03:05:45;12.80;99.90
2158;DHT22;41972;48.774;9.282;2023-09-08T03:08:10;12.80;99.90
2158;DHT22;41972;48.774;9.282;2023-09-08T03:10:36;12.80;99.90
2158;DHT22;41972;48.774;9.282;2023-09-08T03:13:05;12.90;99.90
2158;DHT22;41972;48.774;9.282;2023-09-08T03:15:30;12.80;99.90
2158;DHT22;41972;48.774;9.282;2023-09-08T03:17:57;12.70;99.90
2158;DHT22;41972;48.774;9.282;2023-09-08T03:20:27;12.70;99.90
2158;DHT22;41972;48.774;9.282;2023-09-08T03:22:54;12.70;99.90
2158;DHT22;41972;48.774;9.282;2023-09-08T03:25:20;12.60;99.90
2158;DHT22;41972;48.774;9.282;2023-09-08T03:27:46;12.60;99.90
2158;DHT22;41972;48.774;9.282;2023-09-08T03:30:12;12.60;99.90
2158;DHT22;41972;48.774;9.282;2023-09-08T03:32:37;12.70;99.90
2158;DHT22;41972;48.774;9.282;2023-09-08T03:35:04;12.50;99.90
2158;DHT22;41972;48.774;9.282;2023-09-08T03:37:33;12.50;99.90
2158;DHT22;41972;48.774;9.282;2023-09-08T03:39:59;12.40;99.90
2158;DHT22;41972;48.774;9.282;2023-09-08T03:42:24;12.40;99.90
2158;DHT22;41972;48.774;9.282;2023-09-08T03:44:50;12.40;99.90
2158;DHT22;41972;48.774;9.282;2023-09-08T03:47:15;12.40;99.90
2158;DHT22;41972;48.774;9.282;2023-09-08T03:49:41;12.50;99.90
2158;DHT22;41972;48.774;9.282;2023-09-08T03:52:06;12.50;99.90
2158;DHT22;41972;48.774;9.282;2023-09-08T03:54:32;12.60;99.90
2158;DHT22;41972;48.774;9.282;2023-09-08T03:56:58;12.50;99.90
2158;DHT22;41972;48.774;9.282;2023-09-08T03:59:24;12.50;99.90
2158;DHT22;41972;48.774;9.282;2023-09-08T04:01:49;12.40;99.90
2158;DHT22;41972;48.774;9.282;2023-09-08T04:04:15;12.50;99.90
2158;DHT22;41972;48.774;9.282;2023-09-08T04:06:41;12.40;99.90
2158;DHT22;41972;48.774;9.282;2023-09-08T04:09:06;12.40;99.90
2158;DHT22;41972;48.774;9.282;2023-09-08T04:11:32;12.40;99.90
2158;DHT22;41972;48.774;9.282;2023-09-08T04:13:58;12.50;99.90
2158;DHT22;41972;48.774;9.282;2023-09-08T04:16:25;12.60;99.90
2158;DHT22;41972;48.774;9.282;2023-09-08T04:18:52;12.50;99.90
2158;DHT22;41972;48.774;9.282;2023-09-08T04:21:17;12.50;99.90
2158;DHT22;41972;48.774;9.282;2023-09-08T04:23:43;12.40;99.90
2158;DHT22;41972;48.774;9.282;2023-09-08T04:26:08;12.40;99.90
2158;DHT22;41972;48.774;9.282;2023-09-08T04:28:34;12.30;99.90
2158;DHT22;41972;48.774;9.282;2023-09-08T04:30:59;12.40;99.90
2158;DHT22;41972;48.774;9.282;2023-09-08T04:33:25;12.20;99.90
2158;DHT22;41972;48.774;9.282;2023-09-08T04:35:51;12.20;99.90
2158;DHT22;41972;48.774;9.282;2023-09-08T04:38:18;12.30;99.90
2158;DHT22;41972;48.774;9.282;2023-09-08T04:40:45;12.30;99.90
2158;DHT22;41972;48.774;9.282;2023-09-08T04:43:11;12.40;99.90
2158;DHT22;41972;48.774;9.282;2023-09-08T04:45:37;12.40;99.90
2158;DHT22;41972;48.774;9.282;2023-09-08T04:48:04;12.50;99.90
2158;DHT22;41972;48.774;9.282;2023-09-08T04:50:29;12.60;99.90
2158;DHT22;41972;48.774;9.282;2023-09-08T04:52:55;12.70;99.90
2158;DHT22;41972;48.774;9.282;2023-09-08T04:55:20;12.50;99.90
2158;DHT22;41972;48.774;9.282;2023-09-08T04:57:46;12.50;99.90
2158;DHT22;41972;48.774;9.282;2023-09-08T05:00:12;12.60;99.90
2158;DHT22;41972;48.774;9.282;2023-09-08T05:02:38;12.60;99.90
2158;DHT22;41972;48.774;9.282;2023-09-08T05:05:03;12.70;99.90
2158;DHT22;41972;48.774;9.282;2023-09-08T05:07:29;12.80;99.90
2158;DHT22;41972;48.774;9.282;2023-09-08T05:09:55;12.70;99.90
2158;DHT22;41972;48.774;9.282;2023-09-08T05:12:21;12.80;99.90
2158;DHT22;41972;48.774;9.282;2023-09-08T05:14:46;12.80;99.90
2158;DHT22;41972;48.774;9.282;2023-09-08T05:17:12;12.70;99.90
2158;DHT22;41972;48.774;9.282;2023-09-08T05:19:38;12.90;99.90
2158;DHT22;41972;48.774;9.282;2023-09-08T05:22:05;12.80;99.90
2158;DHT22;41972;48.774;9.282;2023-09-08T05:24:32;12.80;99.90
2158;DHT22;41972;48.774;9.282;2023-09-08T05:26:57;12.90;99.90
2158;DHT22;41972;48.774;9.282;2023-09-08T05:29:23;12.90;99.90
2158;DHT22;41972;48.774;9.282;2023-09-08T05:31:49;12.90;99.90
2158;DHT22;41972;48.774;9.282;2023-09-08T05:34:14;12.90;99.90
2158;DHT22;41972;48.774;9.282;2023-09-08T05:36:40;12.90;99.90
2158;DHT22;41972;48.774;9.282;2023-09-08T05:39:08;12.90;99.90
2158;DHT22;41972;48.774;9.282;2023-09-08T05:41:34;12.90;99.90
2158;DHT22;41972;48.774;9.282;2023-09-08T05:44:00;13.10;99.90
2158;DHT22;41972;48.774;9.282;2023-09-08T05:46:25;13.10;99.90
2158;DHT22;41972;48.774;9.282;2023-09-08T05:48:51;13.00;99.90
2158;DHT22;41972;48.774;9.282;2023-09-08T05:51:16;13.00;99.90
2158;DHT22;41972;48.774;9.282;2023-09-08T05:53:42;13.10;99.90
2158;DHT22;41972;48.774;9.282;2023-09-08T05:56:08;13.30;99.90
2158;DHT22;41972;48.774;9.282;2023-09-08T05:58:34;13.30;99.90
2158;DHT22;41972;48.774;9.282;2023-09-08T06:01:03;13.40;99.90
2158;DHT22;41972;48.774;9.282;2023-09-08T06:03:29;13.90;99.90
2158;DHT22;41972;48.774;9.282;2023-09-08T06:05:55;14.60;99.90
2158;DHT22;41972;48.774;9.282;2023-09-08T06:08:21;15.30;99.90
2158;DHT22;41972;48.774;9.282;2023-09-08T06:10:46;16.00;99.90
2158;DHT22;41972;48.774;9.282;2023-09-08T06:13:12;16.30;99.90
2158;DHT22;41972;48.774;9.282;2023-09-08T06:15:37;17.10;99.90
2158;DHT22;41972;48.774;9.282;2023-09-08T06:18:03;17.70;99.90
2158;DHT22;41972;48.774;9.282;2023-09-08T06:20:29;17.90;99.90
2158;DHT22;41972;48.774;9.282;2023-09-08T06:22:54;17.70;99.90
2158;DHT22;41972;48.774;9.282;2023-09-08T06:25:20;17.90;99.90
2158;DHT22;41972;48.774;9.282;2023-09-08T06:27:45;18.80;99.90
2158;DHT22;41972;48.774;9.282;2023-09-08T06:30:11;18.90;99.90
2158;DHT22;41972;48.774;9.282;2023-09-08T06:32:39;19.30;99.90
2158;DHT22;41972;48.774;9.282;2023-09-08T06:35:05;20.10;99.90
2158;DHT22;41972;48.774;9.282;2023-09-08T06:37:38;20.30;99.90
2158;DHT22;41972;48.774;9.282;2023-09-08T06:40:05;20.30;99.90
2158;DHT22;41972;48.774;9.282;2023-09-08T06:42:31;19.60;99.90
2158;DHT22;41972;48.774;9.282;2023-09-08T06:44:56;20.00;99.90
2158;DHT22;41972;48.774;9.282;2023-09-08T06:47:22;20.20;99.90
2158;DHT22;41972;48.774;9.282;2023-09-08T06:49:48;20.60;99.90
2158;DHT22;41972;48.774;9.282;2023-09-08T06:52:13;21.00;99.90
2158;DHT22;41972;48.774;9.282;2023-09-08T06:54:39;21.70;99.90
2158;DHT22;41972;48.774;9.282;2023-09-08T06:57:04;23.30;99.90
2158;DHT22;41972;48.774;9.282;2023-09-08T06:59:30;23.30;99.90
2158;DHT22;41972;48.774;9.282;2023-09-08T07:01:55;24.50;99.90
2158;DHT22;41972;48.774;9.282;2023-09-08T07:04:21;24.80;99.90
2158;DHT22;41972;48.774;9.282;2023-09-08T07:06:46;24.50;99.90
2158;DHT22;41972;48.774;9.282;2023-09-08T07:09:13;25.10;99.90
2158;DHT22;41972;48.774;9.282;2023-09-08T07:11:39;26.60;99.90
2158;DHT22;41972;48.774;9.282;2023-09-08T07:14:04;26.60;99.90
2158;DHT22;41972;48.774;9.282;2023-09-08T07:16:30;25.40;99.90
2158;DHT22;41972;48.774;9.282;2023-09-08T07:18:55;26.90;99.90
2158;DHT22;41972;48.774;9.282;2023-09-08T07:21:21;26.50;99.90
2158;DHT22;41972;48.774;9.282;2023-09-08T07:23:46;26.30;99.90
2158;DHT22;41972;48.774;9.282;2023-09-08T07:26:12;27.90;99.90
2158;DHT22;41972;48.774;9.282;2023-09-08T07:28:38;28.00;99.90
2158;DHT22;41972;48.774;9.282;2023-09-08T07:31:04;26.90;99.90
2158;DHT22;41972;48.774;9.282;2023-09-08T07:33:30;27.70;99.90
2158;DHT22;41972;48.774;9.282;2023-09-08T07:35:56;27.30;99.90
2158;DHT22;41972;48.774;9.282;2023-09-08T07:38:21;27.40;99.90
2158;DHT22;41972;48.774;9.282;2023-09-08T07:40:47;26.10;99.90
2158;DHT22;41972;48.774;9.282;2023-09-08T07:43:12;25.90;99.90
2158;DHT22;41972;48.774;9.282;2023-09-08T07:45:38;26.40;99.90
2158;DHT22;41972;48.774;9.282;2023-09-08T07:48:06;27.50;99.90
2158;DHT22;41972;48.774;9.282;2023-09-08T07:50:31;29.30;97.30
2158;DHT22;41972;48.774;9.282;2023-09-08T07:52:57;28.80;97.20
2158;DHT22;41972;48.774;9.282;2023-09-08T07:55:23;27.70;97.60
2158;DHT22;41972;48.774;9.282;2023-09-08T07:57:52;29.10;95.80
2158;DHT22;41972;48.774;9.282;2023-09-08T08:00:18;28.20;95.00
2158;DHT22;41972;48.774;9.282;2023-09-08T08:02:53;28.70;92.90
2158;DHT22;41972;48.774;9.282;2023-09-08T08:05:18;29.60;91.30
2158;DHT22;41972;48.774;9.282;2023-09-08T08:07:44;28.20;91.10
2158;DHT22;41972;48.774;9.282;2023-09-08T08:10:10;28.60;90.40
2158;DHT22;41972;48.774;9.282;2023-09-08T08:12:37;29.30;86.80
2158;DHT22;41972;48.774;9.282;2023-09-08T08:15:03;29.90;85.20
2158;DHT22;41972;48.774;9.282;2023-09-08T08:17:30;29.30;82.90
2158;DHT22;41972;48.774;9.282;2023-09-08T08:19:56;28.00;91.50
2158;DHT22;41972;48.774;9.282;2023-09-08T08:22:24;29.60;89.10
2158;DHT22;41972;48.774;9.282;2023-09-08T08:24:49;30.10;84.20
2158;DHT22;41972;48.774;9.282;2023-09-08T08:27:15;30.10;74.70
2158;DHT22;41972;48.774;9.282;2023-09-08T08:29:40;28.80;72.50
2158;DHT22;41972;48.774;9.282;2023-09-08T08:32:06;29.60;77.80
2158;DHT22;41972;48.774;9.282;2023-09-08T08:34:31;31.80;66.70
2158;DHT22;41972;48.774;9.282;2023-09-08T08:36:57;33.90;43.50
2158;DHT22;41972;48.774;9.282;2023-09-08T08:39:23;32.90;43.80
2158;DHT22;41972;48.774;9.282;2023-09-08T08:41:49;30.60;39.50
2158;DHT22;41972;48.774;9.282;2023-09-08T08:44:15;32.10;41.90
2158;DHT22;41972;48.774;9.282;2023-09-08T08:46:43;32.80;37.20
2158;DHT22;41972;48.774;9.282;2023-09-08T08:49:11;34.30;31.40
2158;DHT22;41972;48.774;9.282;2023-09-08T08:51:38;35.20;26.70
2158;DHT22;41972;48.774;9.282;2023-09-08T08:54:05;37.30;20.40
2158;DHT22;41972;48.774;9.282;2023-09-08T08:56:32;33.70;20.20
2158;DHT22;41972;48.774;9.282;2023-09-08T08:58:58;36.10;20.60
2158;DHT22;41972;48.774;9.282;2023-09-08T09:01:26;40.60;10.30
2158;DHT22;41972;48.774;9.282;2023-09-08T09:03:52;42.60;2.70
2158;DHT22;41972;48.774;9.282;2023-09-08T09:06:19;39.60;1.00
2158;DHT22;41972;48.774;9.282;2023-09-08T09:08:45;36.70;1.00
2158;DHT22;41972;48.774;9.282;2023-09-08T09:11:12;38.60;1.00
2158;DHT22;41972;48.774;9.282;2023-09-08T09:13:38;39.20;1.00
2158;DHT22;41972;48.774;9.282;2023-09-08T09:16:03;38.50;1.00
2158;DHT22;41972;48.774;9.282;2023-09-08T09:18:31;37.40;1.00
2158;DHT22;41972;48.774;9.282;2023-09-08T09:21:00;37.70;1.00
2158;DHT22;41972;48.774;9.282;2023-09-08T09:23:29;39.70;1.00
2158;DHT22;41972;48.774;9.282;2023-09-08T09:25:56;41.10;1.00
2158;DHT22;41972;48.774;9.282;2023-09-08T09:28:22;43.60;1.00
2158;DHT22;41972;48.774;9.282;2023-09-08T09:30:49;45.70;1.00
2158;DHT22;41972;48.774;9.282;2023-09-08T09:33:16;41.20;1.00
2158;DHT22;41972;48.774;9.282;2023-09-08T09:35:55;42.30;1.00
2158;DHT22;41972;48.774;9.282;2023-09-08T09:38:21;44.20;1.00
2158;DHT22;41972;48.774;9.282;2023-09-08T09:40:48;46.30;1.00
2158;DHT22;41972;48.774;9.282;2023-09-08T09:43:16;47.10;1.00
2158;DHT22;41972;48.774;9.282;2023-09-08T09:45:42;47.50;1.00
2158;DHT22;41972;48.774;9.282;2023-09-08T09:48:09;47.00;1.00
2158;DHT22;41972;48.774;9.282;2023-09-08T09:50:37;47.20;1.00
2158;DHT22;41972;48.774;9.282;2023-09-08T09:53:10;46.60;1.00
2158;DHT22;41972;48.774;9.282;2023-09-08T09:55:37;40.40;1.00
2158;DHT22;41972;48.774;9.282;2023-09-08T09:58:04;37.70;1.00
2158;DHT22;41972;48.774;9.282;2023-09-08T10:00:31;37.30;1.00
2158;DHT22;41972;48.774;9.282;2023-09-08T10:03:00;34.60;1.00
2158;DHT22;41972;48.774;9.282;2023-09-08T10:05:26;33.80;1.00
2158;DHT22;41972;48.774;9.282;2023-09-08T10:07:52;37.70;1.00
2158;DHT22;41972;48.774;9.282;2023-09-08T10:10:19;36.10;1.00
2158;DHT22;41972;48.774;9.282;2023-09-08T10:12:51;36.90;1.00
2158;DHT22;41972;48.774;9.282;2023-09-08T10:15:22;36.60;1.00
2158;DHT22;41972;48.774;9.282;2023-09-08T10:17:55;36.70;1.00
2158;DHT22;41972;48.774;9.282;2023-09-08T10:20:26;38.40;1.00
2158;DHT22;41972;48.774;9.282;2023-09-08T10:23:06;37.50;1.00
2158;DHT22;41972;48.774;9.282;2023-09-08T10:25:39;34.20;1.00
2158;DHT22;41972;48.774;9.282;2023-09-08T10:28:07;32.20;1.00
2158;DHT22;41972;48.774;9.282;2023-09-08T10:30:33;34.60;1.00
2158;DHT22;41972;48.774;9.282;2023-09-08T10:33:00;35.90;1.00
2158;DHT22;41972;48.774;9.282;2023-09-08T10:35:26;36.10;1.00
2158;DHT22;41972;48.774;9.282;2023-09-08T10:38:45;37.60;1.00
2158;DHT22;41972;48.774;9.282;2023-09-08T10:44:03;40.00;1.00
2158;DHT22;41972;48.774;9.282;2023-09-08T10:46:32;39.70;1.00
2158;DHT22;41972;48.774;9.282;2023-09-08T10:49:04;39.40;1.00
2158;DHT22;41972;48.774;9.282;2023-09-08T10:51:30;36.80;1.00
2158;DHT22;41972;48.774;9.282;2023-09-08T10:53:56;36.20;1.00
2158;DHT22;41972;48.774;9.282;2023-09-08T10:56:27;37.80;1.00
2158;DHT22;41972;48.774;9.282;2023-09-08T10:58:54;37.00;1.00
2158;DHT22;41972;48.774;9.282;2023-09-08T11:01:21;33.40;1.00
2158;DHT22;41972;48.774;9.282;2023-09-08T11:03:52;33.10;1.00
2158;DHT22;41972;48.774;9.282;2023-09-08T11:06:19;33.10;1.00
2158;DHT22;41972;48.774;9.282;2023-09-08T11:08:48;32.50;1.00
2158;DHT22;41972;48.774;9.282;2023-09-08T11:11:16;32.50;1.00
2158;DHT22;41972;48.774;9.282;2023-09-08T11:13:42;31.60;1.00
2158;DHT22;41972;48.774;9.282;2023-09-08T11:16:11;31.50;1.00
2158;DHT22;41972;48.774;9.282;2023-09-08T11:18:37;30.40;1.00
2158;DHT22;41972;48.774;9.282;2023-09-08T11:21:06;29.50;1.10
2158;DHT22;41972;48.774;9.282;2023-09-08T11:23:33;28.90;5.80
2158;DHT22;41972;48.774;9.282;2023-09-08T11:25:59;29.00;10.00
2158;DHT22;41972;48.774;9.282;2023-09-08T11:28:26;29.60;11.10
2158;DHT22;41972;48.774;9.282;2023-09-08T11:30:52;28.70;12.40
2158;DHT22;41972;48.774;9.282;2023-09-08T11:33:20;28.10;16.90
2158;DHT22;41972;48.774;9.282;2023-09-08T11:35:53;28.30;15.00
2158;DHT22;41972;48.774;9.282;2023-09-08T11:38:25;28.20;33.40
2158;DHT22;41972;48.774;9.282;2023-09-08T11:40:51;28.20;29.90
2158;DHT22;41972;48.774;9.282;2023-09-08T11:43:16;28.30;29.30
2158;DHT22;41972;48.774;9.282;2023-09-08T11:45:42;27.50;32.20
2158;DHT22;41972;48.774;9.282;2023-09-08T11:48:09;27.60;37.70
2158;DHT22;41972;48.774;9.282;2023-09-08T11:50:35;28.00;58.60
2158;DHT22;41972;48.774;9.282;2023-09-08T11:53:01;28.40;46.40
2158;DHT22;41972;48.774;9.282;2023-09-08T11:55:28;28.10;65.10
2158;DHT22;41972;48.774;9.282;2023-09-08T11:57:55;27.90;59.10
2158;DHT22;41972;48.774;9.282;2023-09-08T12:00:24;27.90;55.60
2158;DHT22;41972;48.774;9.282;2023-09-08T12:02:51;27.70;55.80
2158;DHT22;41972;48.774;9.282;2023-09-08T12:05:20;27.70;59.80
2158;DHT22;41972;48.774;9.282;2023-09-08T12:07:47;27.80;63.00
2158;DHT22;41972;48.774;9.282;2023-09-08T12:10:13;27.80;70.30
2158;DHT22;41972;48.774;9.282;2023-09-08T12:12:48;27.60;72.10
2158;DHT22;41972;48.774;9.282;2023-09-08T12:15:31;27.70;74.50
2158;DHT22;41972;48.774;9.282;2023-09-08T12:17:57;27.80;68.70
2158;DHT22;41972;48.774;9.282;2023-09-08T12:20:23;27.70;71.40
2158;DHT22;41972;48.774;9.282;2023-09-08T12:22:49;27.70;69.40
2158;DHT22;41972;48.774;9.282;2023-09-08T12:25:15;28.00;66.70
2158;DHT22;41972;48.774;9.282;2023-09-08T12:27:42;27.80;72.90
2158;DHT22;41972;48.774;9.282;2023-09-08T12:30:08;28.10;65.10
2158;DHT22;41972;48.774;9.282;2023-09-08T12:32:35;28.00;71.10
2158;DHT22;41972;48.774;9.282;2023-09-08T12:35:03;28.10;72.20
2158;DHT22;41972;48.774;9.282;2023-09-08T12:37:29;28.30;77.10
2158;DHT22;41972;48.774;9.282;2023-09-08T12:39:56;28.40;75.60
2158;DHT22;41972;48.774;9.282;2023-09-08T12:42:22;28.30;70.70
2158;DHT22;41972;48.774;9.282;2023-09-08T12:44:51;27.90;75.20
2158;DHT22;41972;48.774;9.282;2023-09-08T12:47:17;27.90;68.50
2158;DHT22;41972;48.774;9.282;2023-09-08T12:49:42;28.00;81.30
2158;DHT22;41972;48.774;9.282;2023-09-08T12:52:08;28.00;71.80
2158;DHT22;41972;48.774;9.282;2023-09-08T12:54:35;28.10;68.70
2158;DHT22;41972;48.774;9.282;2023-09-08T12:57:00;28.00;61.30
2158;DHT22;41972;48.774;9.282;2023-09-08T12:59:26;28.00;62.00
2158;DHT22;41972;48.774;9.282;2023-09-08T13:01:52;28.10;58.40
2158;DHT22;41972;48.774;9.282;2023-09-08T13:04:18;27.80;60.20
2158;DHT22;41972;48.774;9.282;2023-09-08T13:06:44;27.90;63.90
2158;DHT22;41972;48.774;9.282;2023-09-08T13:09:10;27.90;59.40
2158;DHT22;41972;48.774;9.282;2023-09-08T13:11:36;28.10;63.20
2158;DHT22;41972;48.774;9.282;2023-09-08T13:14:02;28.40;67.10
2158;DHT22;41972;48.774;9.282;2023-09-08T13:16:27;28.50;60.70
2158;DHT22;41972;48.774;9.282;2023-09-08T13:18:53;28.40;57.70
2158;DHT22;41972;48.774;9.282;2023-09-08T13:21:18;27.80;63.10
2158;DHT22;41972;48.774;9.282;2023-09-08T13:23:44;27.70;64.40
2158;DHT22;41972;48.774;9.282;2023-09-08T13:26:09;27.70;67.40
2158;DHT22;41972;48.774;9.282;2023-09-08T13:28:35;27.70;67.10
2158;DHT22;41972;48.774;9.282;2023-09-08T13:31:01;27.90;66.70
2158;DHT22;41972;48.774;9.282;2023-09-08T13:33:26;27.90;64.80
2158;DHT22;41972;48.774;9.282;2023-09-08T13:35:52;28.20;59.50
2158;DHT22;41972;48.774;9.282;2023-09-08T13:38:18;27.90;60.30
2158;DHT22;41972;48.774;9.282;2023-09-08T13:40:43;27.80;64.60
2158;DHT22;41972;48.774;9.282;2023-09-08T13:43:09;27.70;57.90
2158;DHT22;41972;48.774;9.282;2023-09-08T13:45:36;27.60;59.10
2158;DHT22;41972;48.774;9.282;2023-09-08T13:48:02;27.60;63.60
2158;DHT22;41972;48.774;9.282;2023-09-08T13:50:29;27.40;59.90
2158;DHT22;41972;48.774;9.282;2023-09-08T13:52:55;27.70;60.80
2158;DHT22;41972;48.774;9.282;2023-09-08T13:55:22;27.90;53.60
2158;DHT22;41972;48.774;9.282;2023-09-08T13:57:49;27.90;55.60
2158;DHT22;41972;48.774;9.282;2023-09-08T14:00:16;27.80;50.70
2158;DHT22;41972;48.774;9.282;2023-09-08T14:02:42;27.70;55.30
2158;DHT22;41972;48.774;9.282;2023-09-08T14:05:08;27.50;57.00
2158;DHT22;41972;48.774;9.282;2023-09-08T14:07:33;27.50;53.80
2158;DHT22;41972;48.774;9.282;2023-09-08T14:09:59;27.70;58.20
2158;DHT22;41972;48.774;9.282;2023-09-08T14:12:26;27.70;68.20
2158;DHT22;41972;48.774;9.282;2023-09-08T14:14:52;27.80;59.70
2158;DHT22;41972;48.774;9.282;2023-09-08T14:17:17;27.80;58.60
2158;DHT22;41972;48.774;9.282;2023-09-08T14:19:43;27.90;61.30
2158;DHT22;41972;48.774;9.282;2023-09-08T14:22:09;27.80;62.30
2158;DHT22;41972;48.774;9.282;2023-09-08T14:24:34;27.90;63.40
2158;DHT22;41972;48.774;9.282;2023-09-08T14:27:00;27.90;63.70
2158;DHT22;41972;48.774;9.282;2023-09-08T14:29:25;27.90;62.60
2158;DHT22;41972;48.774;9.282;2023-09-08T14:31:51;27.70;61.00
2158;DHT22;41972;48.774;9.282;2023-09-08T14:34:16;27.70;68.80
2158;DHT22;41972;48.774;9.282;2023-09-08T14:36:42;27.80;72.10
2158;DHT22;41972;48.774;9.282;2023-09-08T14:39:08;27.80;63.20
2158;DHT22;41972;48.774;9.282;2023-09-08T14:41:33;27.90;65.50
2158;DHT22;41972;48.774;9.282;2023-09-08T14:43:59;27.90;65.90
2158;DHT22;41972;48.774;9.282;2023-09-08T14:46:24;27.90;62.30
2158;DHT22;41972;48.774;9.282;2023-09-08T14:48:50;27.90;65.20
2158;DHT22;41972;48.774;9.282;2023-09-08T14:51:16;27.90;62.50
2158;DHT22;41972;48.774;9.282;2023-09-08T14:53:41;27.90;61.60
2158;DHT22;41972;48.774;9.282;2023-09-08T14:56:07;27.90;60.90
2158;DHT22;41972;48.774;9.282;2023-09-08T14:58:32;27.90;61.70
2158;DHT22;41972;48.774;9.282;2023-09-08T15:01:03;28.00;62.40
2158;DHT22;41972;48.774;9.282;2023-09-08T15:03:33;27.80;62.60
2158;DHT22;41972;48.774;9.282;2023-09-08T15:05:59;28.00;63.40
2158;DHT22;41972;48.774;9.282;2023-09-08T15:08:25;27.90;62.90
2158;DHT22;41972;48.774;9.282;2023-09-08T15:10:50;27.90;64.60
2158;DHT22;41972;48.774;9.282;2023-09-08T15:13:16;27.90;65.00
2158;DHT22;41972;48.774;9.282;2023-09-08T15:15:42;27.90;62.00
2158;DHT22;41972;48.774;9.282;2023-09-08T15:18:07;27.90;61.30
2158;DHT22;41972;48.774;9.282;2023-09-08T15:20:33;28.00;56.40
2158;DHT22;41972;48.774;9.282;2023-09-08T15:22:58;27.90;63.70
2158;DHT22;41972;48.774;9.282;2023-09-08T15:25:24;27.90;63.70
2158;DHT22;41972;48.774;9.282;2023-09-08T15:27:49;27.90;65.40
2158;DHT22;41972;48.774;9.282;2023-09-08T15:30:15;27.90;63.20
2158;DHT22;41972;48.774;9.282;2023-09-08T15:32:41;27.80;61.80
2158;DHT22;41972;48.774;9.282;2023-09-08T15:35:07;27.90;61.90
2158;DHT22;41972;48.774;9.282;2023-09-08T15:37:33;27.90;66.00
2158;DHT22;41972;48.774;9.282;2023-09-08T15:39:59;28.00;67.00
2158;DHT22;41972;48.774;9.282;2023-09-08T15:42:25;27.80;66.60
2158;DHT22;41972;48.774;9.282;2023-09-08T15:44:51;27.80;68.40
2158;DHT22;41972;48.774;9.282;2023-09-08T15:47:17;27.80;64.60
2158;DHT22;41972;48.774;9.282;2023-09-08T15:49:44;27.70;65.80
2158;DHT22;41972;48.774;9.282;2023-09-08T15:52:10;27.80;67.40
2158;DHT22;41972;48.774;9.282;2023-09-08T15:54:35;27.80;66.20